Time;durP1;ratioP1;P1;durP2;ratioP2;P2;SDS_P1;SDS_P2;PMS_P1;PMS_P2;Temp;Humidity;BMP_temperature;BMP_pressure;BME280_temperature;BME280_humidity;BME280_pressure;Samples;Min_cycle;Max_cycle;Signal;HPM_P1;HPM_P2
2023/05/13 06:02:56;;;;;;;6.35;4.78;;;;;;;;;;10561291;28;20032;-84
2023/05/13 06:07:57;;;;;;;5.03;4.10;;;;;;;;;;10543702;28;20039;-83
2023/05/13 06:12:58;;;;;;;5.22;3.97;;;;;;;;;;10541435;28;20463;-81
2023/05/13 06:18:00;;;;;;;7.25;4.70;;;;;;;;;;10553760;28;20574;-84
2023/05/13 06:23:01;;;;;;;5.65;4.55;;;;;;;;;;10549504;28;20023;-84
2023/05/13 06:28:02;;;;;;;5.28;4.50;;;;;;;;;;10561398;28;20048;-83
2023/05/13 06:33:04;;;;;;;7.18;4.50;;;;;;;;;;10566557;28;20027;-83
2023/05/13 06:38:05;;;;;;;6.22;4.97;;;;;;;;;;10567995;28;20024;-83
2023/05/13 06:43:06;;;;;;;5.53;5.03;;;;;;;;;;10557229;28;20025;-84
2023/05/13 06:48:07;;;;;;;6.85;5.35;;;;;;;;;;10550736;28;20032;-84
2023/05/13 06:53:11;;;;;;;5.50;4.97;;;;;;;;;;10556319;28;20024;-83
2023/05/13 06:58:12;;;;;;;5.40;4.90;;;;;;;;;;10558175;28;20032;-83
2023/05/13 07:03:13;;;;;;;7.88;6.90;;;;;;;;;;10530424;28;20017;-84
2023/05/13 07:08:16;;;;;;;9.23;5.82;;;;;;;;;;10525464;28;20552;-80
2023/05/13 07:13:18;;;;;;;5.78;5.07;;;;;;;;;;10515490;28;20021;-80
2023/05/13 07:18:19;;;;;;;5.53;4.88;;;;;;;;;;10519518;28;20029;-80
2023/05/13 07:23:20;;;;;;;7.57;5.18;;;;;;;;;;10518900;28;20055;-81
2023/05/13 07:28:21;;;;;;;6.75;4.53;;;;;;;;;;10518635;28;20040;-81
2023/05/13 07:33:22;;;;;;;5.72;5.22;;;;;;;;;;10521274;28;20059;-82
2023/05/13 07:38:23;;;;;;;11.43;5.13;;;;;;;;;;10520967;28;20151;-82
2023/05/13 07:43:26;;;;;;;5.85;5.00;;;;;;;;;;10532161;28;20046;-81
2023/05/13 07:48:27;;;;;;;7.72;5.15;;;;;;;;;;10533285;28;20099;-82
2023/05/13 07:53:28;;;;;;;6.03;5.32;;;;;;;;;;10535429;28;20039;-82
2023/05/13 07:58:29;;;;;;;9.35;5.15;;;;;;;;;;10534470;28;20032;-82
2023/05/13 08:03:30;;;;;;;6.13;4.75;;;;;;;;;;10527385;28;20044;-83
2023/05/13 08:08:32;;;;;;;6.70;4.97;;;;;;;;;;10521245;28;20093;-82
2023/05/13 08:13:33;;;;;;;6.65;5.63;;;;;;;;;;10517062;28;20021;-81
2023/05/13 08:18:34;;;;;;;6.53;5.22;;;;;;;;;;10518568;28;20064;-82
2023/05/13 08:23:37;;;;;;;6.18;5.20;;;;;;;;;;10517563;28;20390;-82
2023/05/13 08:28:38;;;;;;;5.75;4.80;;;;;;;;;;10518689;28;20470;-81
2023/05/13 08:33:44;;;;;;;5.38;4.60;;;;;;;;;;10528243;28;20454;-82
2023/05/13 08:38:46;;;;;;;5.22;4.40;;;;;;;;;;10530951;28;20030;-80
2023/05/13 08:43:47;;;;;;;9.52;6.68;;;;;;;;;;10535871;28;20028;-82
2023/05/13 08:48:48;;;;;;;7.15;4.80;;;;;;;;;;10539293;28;20037;-84
2023/05/13 08:53:51;;;;;;;7.72;5.40;;;;;;;;;;10523499;28;20394;-83
2023/05/13 08:58:53;;;;;;;6.43;4.60;;;;;;;;;;10524609;28;20025;-83
2023/05/13 09:04:05;;;;;;;11.27;6.55;;;;;;;;;;10521396;28;20028;-84
2023/05/13 09:09:06;;;;;;;9.65;4.95;;;;;;;;;;10527506;28;20039;-82
2023/05/13 09:14:10;;;;;;;13.77;9.02;;;;;;;;;;10522962;28;20382;-84
2023/05/13 09:19:12;;;;;;;7.45;4.55;;;;;;;;;;10521808;28;20021;-82
2023/05/13 09:24:17;;;;;;;8.88;6.03;;;;;;;;;;10519336;28;20039;-84
2023/05/13 09:29:23;;;;;;;6.47;4.93;;;;;;;;;;10510769;28;20047;-82
2023/05/13 09:34:27;;;;;;;7.78;5.40;;;;;;;;;;10512255;28;20091;-82
2023/05/13 09:39:28;;;;;;;5.82;4.88;;;;;;;;;;10512494;28;20405;-84
2023/05/13 09:44:29;;;;;;;6.05;4.45;;;;;;;;;;10517342;28;20036;-83
2023/05/13 09:49:31;;;;;;;7.63;4.70;;;;;;;;;;10525570;28;20044;-83
2023/05/13 09:54:35;;;;;;;5.50;4.40;;;;;;;;;;10519034;28;20025;-83
2023/05/13 09:59:36;;;;;;;7.28;4.53;;;;;;;;;;10518006;28;20092;-83
2023/05/13 10:04:38;;;;;;;8.80;6.30;;;;;;;;;;10520019;28;20021;-81
2023/05/13 10:09:40;;;;;;;11.30;5.95;;;;;;;;;;10522635;28;20024;-82
2023/05/13 10:14:41;;;;;;;6.53;5.65;;;;;;;;;;10524294;28;20021;-84
2023/05/13 10:19:43;;;;;;;9.30;7.15;;;;;;;;;;10517834;28;20088;-81
2023/05/13 10:24:44;;;;;;;6.40;5.43;;;;;;;;;;10517712;28;20363;-82
2023/05/13 10:29:46;;;;;;;6.72;4.43;;;;;;;;;;10510046;28;20025;-81
2023/05/13 10:34:49;;;;;;;9.88;6.90;;;;;;;;;;10518405;28;20016;-82
2023/05/13 10:39:59;;;;;;;6.00;5.35;;;;;;;;;;10524693;28;20092;-82
2023/05/13 10:45:00;;;;;;;7.18;4.43;;;;;;;;;;10525808;28;20025;-81
2023/05/13 10:50:25;;;;;;;4.43;4.03;;;;;;;;;;10525322;28;20055;-82
2023/05/13 10:55:27;;;;;;;12.05;6.32;;;;;;;;;;10515282;28;20032;-81
2023/05/13 11:00:30;;;;;;;4.97;4.00;;;;;;;;;;10525655;28;20105;-83
2023/05/13 11:05:31;;;;;;;7.82;5.20;;;;;;;;;;10529868;28;20028;-84
2023/05/13 11:10:32;;;;;;;7.80;3.90;;;;;;;;;;10532466;28;20093;-84
2023/05/13 11:15:48;;;;;;;4.78;3.45;;;;;;;;;;10541529;28;20009;-82
2023/05/13 11:20:53;;;;;;;7.95;4.70;;;;;;;;;;10533878;28;20022;-82
2023/05/13 11:26:11;;;;;;;5.53;3.92;;;;;;;;;;10521720;28;20033;-82
2023/05/13 11:31:16;;;;;;;4.38;3.97;;;;;;;;;;10522513;28;20093;-82
2023/05/13 11:36:19;;;;;;;5.30;4.25;;;;;;;;;;10520403;28;20135;-83
2023/05/13 11:41:20;;;;;;;6.60;4.30;;;;;;;;;;10520447;28;20081;-82
2023/05/13 11:46:22;;;;;;;5.05;4.38;;;;;;;;;;10519249;28;20021;-83
2023/05/13 11:51:27;;;;;;;9.02;8.15;;;;;;;;;;10522725;28;20102;-82
2023/05/13 11:56:28;;;;;;;6.45;4.07;;;;;;;;;;10518101;28;20020;-82
2023/05/13 12:01:29;;;;;;;6.70;4.75;;;;;;;;;;10538740;22;20012;-83
2023/05/13 12:06:31;;;;;;;5.70;4.45;;;;;;;;;;10512560;28;20105;-80
2023/05/13 12:11:32;;;;;;;5.60;4.07;;;;;;;;;;10512430;28;20131;-80
2023/05/13 12:16:33;;;;;;;11.32;10.13;;;;;;;;;;10516085;28;20044;-80
2023/05/13 12:21:34;;;;;;;5.05;4.53;;;;;;;;;;10513804;28;20127;-79
2023/05/13 12:26:35;;;;;;;6.28;3.33;;;;;;;;;;10513923;28;20066;-80
2023/05/13 12:31:36;;;;;;;6.03;5.28;;;;;;;;;;10514698;28;20021;-81
2023/05/13 12:36:38;;;;;;;7.35;3.78;;;;;;;;;;10510159;28;20438;-80
2023/05/13 12:41:41;;;;;;;4.38;3.40;;;;;;;;;;10509714;28;20107;-82
2023/05/13 12:46:56;;;;;;;5.20;3.88;;;;;;;;;;10510077;28;20040;-81
2023/05/13 12:51:57;;;;;;;5.65;4.57;;;;;;;;;;10514068;28;20073;-81
2023/05/13 12:56:58;;;;;;;5.07;3.65;;;;;;;;;;10511342;28;20504;-81
2023/05/13 13:01:59;;;;;;;5.00;3.78;;;;;;;;;;10510342;28;20033;-82
2023/05/13 13:07:02;;;;;;;6.25;4.35;;;;;;;;;;10509816;28;20071;-81
2023/05/13 13:12:03;;;;;;;5.50;3.70;;;;;;;;;;10511609;28;20174;-81
2023/05/13 13:17:04;;;;;;;6.20;4.30;;;;;;;;;;10510474;28;20028;-81
2023/05/13 13:22:05;;;;;;;6.38;4.88;;;;;;;;;;10511462;28;20028;-81
2023/05/13 13:27:06;;;;;;;5.25;3.60;;;;;;;;;;10509986;28;20078;-81
2023/05/13 13:32:07;;;;;;;5.15;3.80;;;;;;;;;;10507727;28;20360;-81
2023/05/13 13:37:08;;;;;;;6.55;4.05;;;;;;;;;;10508531;28;20050;-81
2023/05/13 13:42:09;;;;;;;8.02;5.47;;;;;;;;;;10510515;28;20036;-82
2023/05/13 13:47:11;;;;;;;5.22;4.30;;;;;;;;;;10509257;28;20096;-81
2023/05/13 13:52:12;;;;;;;4.57;3.88;;;;;;;;;;10509346;28;20032;-81
2023/05/13 13:57:13;;;;;;;6.32;3.92;;;;;;;;;;10510569;28;20063;-82
2023/05/13 14:02:14;;;;;;;10.00;4.20;;;;;;;;;;10505992;28;20119;-82
2023/05/13 14:07:15;;;;;;;5.20;3.65;;;;;;;;;;10505419;28;20029;-80
2023/05/13 14:12:16;;;;;;;8.15;3.83;;;;;;;;;;10512934;28;20147;-82
2023/05/13 14:17:17;;;;;;;6.47;4.40;;;;;;;;;;10515590;28;20124;-80
2023/05/13 14:22:18;;;;;;;5.20;3.72;;;;;;;;;;10514353;28;20024;-81
2023/05/13 14:27:20;;;;;;;5.80;5.28;;;;;;;;;;10513342;28;20025;-81
2023/05/13 14:32:21;;;;;;;7.07;4.55;;;;;;;;;;10513449;28;20391;-81
2023/05/13 14:37:22;;;;;;;4.57;4.13;;;;;;;;;;10512574;28;20127;-81
2023/05/13 14:42:23;;;;;;;6.80;5.20;;;;;;;;;;10512238;28;20024;-81
2023/05/13 14:47:24;;;;;;;7.30;4.13;;;;;;;;;;10515279;28;20539;-81
2023/05/13 14:52:25;;;;;;;5.03;3.50;;;;;;;;;;10526540;28;20059;-81
2023/05/13 14:57:26;;;;;;;6.85;3.60;;;;;;;;;;10550949;28;20028;-80
2023/05/13 15:02:27;;;;;;;6.85;3.50;;;;;;;;;;10536771;28;20020;-81
2023/05/13 15:07:28;;;;;;;4.35;3.25;;;;;;;;;;10531309;28;20032;-82
2023/05/13 15:12:30;;;;;;;5.78;4.70;;;;;;;;;;10517445;28;20493;-80
2023/05/13 15:17:31;;;;;;;6.88;5.60;;;;;;;;;;10517975;28;20032;-78
2023/05/13 15:22:32;;;;;;;4.20;3.80;;;;;;;;;;10523559;28;20035;-81
2023/05/13 15:27:33;;;;;;;4.55;3.42;;;;;;;;;;10527239;28;20044;-81
2023/05/13 15:32:34;;;;;;;4.82;3.88;;;;;;;;;;10533783;28;20033;-80
2023/05/13 15:37:36;;;;;;;4.40;4.00;;;;;;;;;;10512676;28;20529;-80
2023/05/13 15:42:37;;;;;;;6.78;3.70;;;;;;;;;;10507831;28;20052;-81
2023/05/13 15:47:38;;;;;;;3.90;3.50;;;;;;;;;;10509121;28;20130;-81
2023/05/13 15:52:39;;;;;;;5.25;4.75;;;;;;;;;;10510047;28;20092;-82
2023/05/13 15:57:45;;;;;;;6.72;3.67;;;;;;;;;;10510447;28;20505;-81
2023/05/13 16:02:47;;;;;;;4.07;3.42;;;;;;;;;;10509439;28;20036;-84
2023/05/13 16:07:51;;;;;;;5.75;3.53;;;;;;;;;;10516229;28;20377;-84
2023/05/13 16:12:57;;;;;;;3.92;2.90;;;;;;;;;;10530275;28;20024;-83
2023/05/13 16:17:59;;;;;;;4.78;2.80;;;;;;;;;;10537265;28;20036;-83
2023/05/13 16:23:03;;;;;;;3.20;2.88;;;;;;;;;;10508581;28;20032;-84
2023/05/13 16:28:47;;;;;;;3.33;2.88;;;;;;;;;;10506567;28;20029;-84
2023/05/13 16:33:48;;;;;;;3.10;2.80;;;;;;;;;;10506406;28;20475;-84
2023/05/13 16:38:49;;;;;;;3.50;2.97;;;;;;;;;;10506986;28;20386;-85
2023/05/13 16:43:50;;;;;;;3.65;2.88;;;;;;;;;;10508495;28;20024;-85
2023/05/13 16:48:54;;;;;;;4.85;3.17;;;;;;;;;;10507907;28;20040;-85
2023/05/13 16:54:06;;;;;;;4.13;3.42;;;;;;;;;;10507829;28;20044;-84
2023/05/13 16:59:31;;;;;;;3.90;2.92;;;;;;;;;;10506132;28;20032;-85
2023/05/13 17:05:03;;;;;;;4.00;2.78;;;;;;;;;;10504602;28;20051;-85
2023/05/13 17:10:34;;;;;;;4.15;2.95;;;;;;;;;;10506586;28;20036;-85
2023/05/13 17:16:01;;;;;;;3.25;2.63;;;;;;;;;;10507172;28;20029;-84
2023/05/13 17:21:29;;;;;;;3.45;3.15;;;;;;;;;;10510739;28;20397;-85
2023/05/13 17:26:31;;;;;;;3.63;3.33;;;;;;;;;;10506419;28;20509;-85
2023/05/13 17:31:43;;;;;;;4.63;3.28;;;;;;;;;;10504272;28;20458;-85
2023/05/13 17:36:44;;;;;;;4.55;3.58;;;;;;;;;;10504243;28;20082;-85
2023/05/13 17:41:45;;;;;;;5.43;4.88;;;;;;;;;;10504741;28;20017;-85
2023/05/13 17:46:46;;;;;;;6.97;4.88;;;;;;;;;;10505817;28;20425;-86
2023/05/13 17:51:55;;;;;;;5.82;4.15;;;;;;;;;;10508260;28;20021;-85
2023/05/13 17:56:56;;;;;;;4.45;3.63;;;;;;;;;;10511801;28;20033;-86
2023/05/13 18:01:57;;;;;;;4.28;3.65;;;;;;;;;;10527855;22;20092;-81
2023/05/13 18:06:58;;;;;;;4.50;3.80;;;;;;;;;;10470129;28;20131;-81
2023/05/13 18:11:59;;;;;;;6.82;4.05;;;;;;;;;;10469462;28;20502;-80
2023/05/13 18:17:00;;;;;;;4.05;3.60;;;;;;;;;;10467195;28;20071;-81
2023/05/13 18:22:01;;;;;;;3.95;3.53;;;;;;;;;;10470770;28;20544;-82
2023/05/13 18:27:02;;;;;;;4.43;3.75;;;;;;;;;;10466752;28;20017;-81
2023/05/13 18:32:03;;;;;;;6.32;5.00;;;;;;;;;;10467244;28;20021;-80
2023/05/13 18:37:05;;;;;;;5.63;4.30;;;;;;;;;;10477659;28;20100;-80
2023/05/13 18:42:06;;;;;;;4.47;3.92;;;;;;;;;;10479080;28;20124;-81
2023/05/13 18:47:07;;;;;;;5.55;4.80;;;;;;;;;;10464865;28;20025;-81
2023/05/13 18:52:09;;;;;;;4.22;3.78;;;;;;;;;;10465563;28;20394;-81
2023/05/13 18:57:10;;;;;;;3.85;3.25;;;;;;;;;;10469678;28;20470;-81
2023/05/13 19:02:11;;;;;;;3.78;3.45;;;;;;;;;;10472504;28;20041;-81
2023/05/13 19:07:12;;;;;;;4.38;3.85;;;;;;;;;;10473305;28;20057;-81
2023/05/13 19:12:13;;;;;;;4.35;3.95;;;;;;;;;;10473870;28;20052;-81
